Taiki Maru — JI3464 — position and weather

sailwx.info

Track history (hours):
 
Tides and Currents Weather Stations Pressure Air Temp Water Temp Dewpoint Dewpoint Depression Visibility Wind Speed Wind Dir Waves Ship Positions

Taiki Maru

Last reported at 2015-Mar-19 09:33 UTC. Time now 2015-Apr-02 09:41 UTC.
Position N 34°05' E 135°01'.
Warning: this ship's position is 14 days out of date.

Length 93 m; draft 5.2 m.

Type: Cargo ship. MMSI: 431300622.

Date/timePositionNaut miles runAvg speedWind from/ knotsBaromVisibWave heightAir tempDewpointWater temp
2015-Mar-19 09:33N 34°05' E 135°01'6 5.7
2015-Mar-19 08:33N 34°08' E 135°07'0 0.0
2015-Mar-19 07:33N 34°08' E 135°07'0 0.1
2015-Mar-19 06:33N 34°08' E 135°07'0 0.0
2015-Mar-19 05:33N 34°08' E 135°07'1 0.2
2015-Mar-19 02:33N 34°07' E 135°07'2 2.4
2015-Mar-19 01:33N 34°10' E 135°08'0 0.1
2015-Mar-19 00:33N 34°10' E 135°08'0 0.0
2015-Mar-18 23:33N 34°10' E 135°08'0 0.0
2015-Mar-18 22:33N 34°10' E 135°08'0 0.0
2015-Mar-18 21:33N 34°10' E 135°08'6 5.5
2015-Mar-18 20:33N 34°13' E 135°02'10 9.6
2015-Mar-18 19:33N 34°22' E 135°00'1211.9
2015-Mar-18 18:33N 34°30' E 135°11'1313.0
2015-Mar-18 17:33N 34°38' E 135°23'4 3.6
2015-Mar-18 16:33N 34°40' E 135°27'0 0.0
2015-Mar-18 15:33N 34°40' E 135°27'0 0.0
2015-Mar-18 14:33N 34°40' E 135°27'0 0.0
2015-Mar-18 13:33N 34°40' E 135°27'0 0.0
2015-Mar-18 12:33N 34°40' E 135°27'0 0.0
2015-Mar-18 11:33N 34°40' E 135°27'0 0.0
2015-Mar-18 10:33N 34°40' E 135°27'0 0.0
2015-Mar-18 09:33N 34°40' E 135°27'0 0.0
2015-Mar-18 08:33N 34°40' E 135°27'0 0.1
2015-Mar-18 07:33N 34°40' E 135°27'7 7.1
2015-Mar-18 06:33N 34°36' E 135°20'2 1.9
2015-Mar-18 05:33N 34°35' E 135°18'0 0.0
2015-Mar-18 04:33N 34°35' E 135°18'0 0.0
2015-Mar-18 03:33N 34°35' E 135°18'0 0.0
2015-Mar-18 02:33N 34°35' E 135°18'0 0.0
2015-Mar-18 01:33N 34°35' E 135°18'0 0.0
2015-Mar-18 00:33N 34°35' E 135°18'0 0.0
2015-Mar-17 23:33N 34°35' E 135°18'0 0.0
2015-Mar-17 22:33N 34°35' E 135°18'0 0.0
2015-Mar-17 21:33N 34°35' E 135°18'0 0.0
2015-Mar-17 20:33N 34°35' E 135°18'0 0.1
2015-Mar-17 19:33N 34°35' E 135°18'0 0.0
2015-Mar-17 18:33N 34°35' E 135°18'0 0.1
2015-Mar-17 17:33N 34°35' E 135°18'0 0.0
2015-Mar-17 16:34N 34°35' E 135°18'0 0.0
2015-Mar-17 15:33N 34°35' E 135°18'0 0.0
2015-Mar-17 14:33N 34°35' E 135°18'0 0.0
2015-Mar-17 13:33N 34°35' E 135°18'0 0.0
2015-Mar-17 12:33N 34°35' E 135°18'0 0.0
2015-Mar-17 11:33N 34°35' E 135°18'0 0.0
2015-Mar-17 10:33N 34°35' E 135°18'0 0.1
2015-Mar-17 09:33N 34°35' E 135°18'0 0.0
2015-Mar-17 08:33N 34°35' E 135°18'0 0.0
2015-Mar-17 07:33N 34°35' E 135°18'0 0.0
2015-Mar-17 06:33N 34°35' E 135°18'0 0.0
2015-Mar-17 05:33N 34°35' E 135°18'0 0.0
2015-Mar-17 04:33N 34°35' E 135°18'0 0.0
2015-Mar-17 03:33N 34°35' E 135°18'0 0.0
2015-Mar-17 02:33N 34°35' E 135°18'0 0.0
2015-Mar-17 01:33N 34°35' E 135°18'0 0.0
2015-Mar-17 00:33N 34°35' E 135°18'0 0.0
2015-Mar-16 23:33N 34°35' E 135°18'7 7.3
2015-Mar-16 22:33N 34°29' E 135°12'1312.6
2015-Mar-16 21:31N 34°20' E 135°01'8 8.1
2015-Mar-16 20:34N 34°14' E 135°08'0 0.2
2015-Mar-16 19:34N 34°14' E 135°08'0 0.0
2015-Mar-16 18:34N 34°14' E 135°08'0 0.0
2015-Mar-16 17:33N 34°14' E 135°08'0 0.0
2015-Mar-16 16:33N 34°14' E 135°08'0 0.0
2015-Mar-16 15:34N 34°14' E 135°08'0 0.0
2015-Mar-16 14:34N 34°14' E 135°08'0 0.0
2015-Mar-16 13:33N 34°14' E 135°08'0 0.0
2015-Mar-16 12:34N 34°14' E 135°08'0 0.0
2015-Mar-16 11:33N 34°14' E 135°08'0 0.0
2015-Mar-16 10:34N 34°14' E 135°08'2 2.5
2015-Mar-16 09:34N 34°15' E 135°05'7 6.6
2015-Mar-16 08:33N 34°08' E 135°07'2 0.2
2015-Mar-15 23:11N 34°07' E 135°08'1 1.5
2015-Mar-15 22:24N 34°08' E 135°07'0 0.0
2015-Mar-15 21:30N 34°08' E 135°07'0 0.0
2015-Mar-15 20:33N 34°08' E 135°07'0 0.0
2015-Mar-15 19:27N 34°08' E 135°07'0 0.0
2015-Mar-15 18:33N 34°08' E 135°07'1 1.0
2015-Mar-15 17:33N 34°09' E 135°06'6 5.6
2015-Mar-15 16:33N 34°14' E 135°08'0 0.0
2015-Mar-15 15:31N 34°14' E 135°08'0 0.0
2015-Mar-15 14:31N 34°14' E 135°08'0 0.0
2015-Mar-15 13:28N 34°14' E 135°08'0 0.0
2015-Mar-15 12:28N 34°14' E 135°08'0 0.0
2015-Mar-15 11:31N 34°14' E 135°08'0 0.0
2015-Mar-15 10:31N 34°14' E 135°08'0 0.0
2015-Mar-15 09:31N 34°14' E 135°08'0 0.0
2015-Mar-15 08:31N 34°14' E 135°08'0 0.0
2015-Mar-15 07:31N 34°14' E 135°08'0 0.0
2015-Mar-15 06:31N 34°14' E 135°08'0 0.0
2015-Mar-15 05:31N 34°14' E 135°08'0 0.0
2015-Mar-15 04:31N 34°14' E 135°08'0 0.1
2015-Mar-15 03:33N 34°14' E 135°08'7 7.2
2015-Mar-15 02:33N 34°16' E 134°59'1212.2
2015-Mar-15 01:32N 34°28' E 135°02'9 9.1
2015-Mar-15 00:31N 34°36' E 134°57'1512.8
2015-Mar-14 23:22N 34°41' E 134°40'8 0.7
2015-Mar-14 12:09N 34°39' E 134°49'812.6
2015-Mar-14 11:32N 34°38' E 134°59'9 9.4
2015-Mar-14 10:33N 34°29' E 135°04'1313.2
2015-Mar-14 09:32N 34°17' E 134°59'1313.1
2015-Mar-14 08:33N 34°04' E 134°59'23710.3
2015-Mar-13 09:33N 35°04' E 139°38'1010.2
2015-Mar-13 08:33N 35°12' E 139°46'1110.7
2015-Mar-13 07:33N 35°22' E 139°42'7 7.1
2015-Mar-13 06:33N 35°29' E 139°40'0 0.0
2015-Mar-13 05:32N 35°29' E 139°40'0 0.0
2015-Mar-13 04:32N 35°29' E 139°40'0 0.0
2015-Mar-13 03:32N 35°29' E 139°40'0 0.0
2015-Mar-13 02:32N 35°29' E 139°40'1 0.9
2015-Mar-13 01:33N 35°28' E 139°40'5 5.4
2015-Mar-13 00:33N 35°24' E 139°44'0 0.0
2015-Mar-12 23:33N 35°24' E 139°44'0 0.0
2015-Mar-12 22:33N 35°24' E 139°44'0 0.0
2015-Mar-12 21:33N 35°24' E 139°44'0 0.1
2015-Mar-12 20:34N 35°24' E 139°44'5 5.2
2015-Mar-12 19:33N 35°19' E 139°44'1211.6
2015-Mar-12 18:34N 35°07' E 139°46'1211.5
2015-Mar-12 17:30N 34°55' E 139°45'  
Track history (hours):
 
Tides and Currents Weather Stations Pressure Air Temp Water Temp Dewpoint Dewpoint Depression Visibility Wind Speed Wind Dir Waves Ship Positions

Taiki Maru

Last reported at 2015-Mar-19 09:33 UTC. Time now 2015-Apr-02 09:41 UTC.
Position N 34°05' E 135°01'.
Warning: this ship's position is 14 days out of date.

Length 93 m; draft 5.2 m.

Type: Cargo ship. MMSI: 431300622.

Date/timePositionNaut miles runAvg speedWind from/ knotsBaromVisibWave heightAir tempDewpointWater temp
2015-Mar-19 09:33N 34°05' E 135°01'6 5.7
2015-Mar-19 08:33N 34°08' E 135°07'0 0.0
2015-Mar-19 07:33N 34°08' E 135°07'0 0.1
2015-Mar-19 06:33N 34°08' E 135°07'0 0.0
2015-Mar-19 05:33N 34°08' E 135°07'1 0.2
2015-Mar-19 02:33N 34°07' E 135°07'2 2.4
2015-Mar-19 01:33N 34°10' E 135°08'0 0.1
2015-Mar-19 00:33N 34°10' E 135°08'0 0.0
2015-Mar-18 23:33N 34°10' E 135°08'0 0.0
2015-Mar-18 22:33N 34°10' E 135°08'0 0.0
2015-Mar-18 21:33N 34°10' E 135°08'6 5.5
2015-Mar-18 20:33N 34°13' E 135°02'10 9.6
2015-Mar-18 19:33N 34°22' E 135°00'1211.9
2015-Mar-18 18:33N 34°30' E 135°11'1313.0
2015-Mar-18 17:33N 34°38' E 135°23'4 3.6
2015-Mar-18 16:33N 34°40' E 135°27'0 0.0
2015-Mar-18 15:33N 34°40' E 135°27'0 0.0
2015-Mar-18 14:33N 34°40' E 135°27'0 0.0
2015-Mar-18 13:33N 34°40' E 135°27'0 0.0
2015-Mar-18 12:33N 34°40' E 135°27'0 0.0
2015-Mar-18 11:33N 34°40' E 135°27'0 0.0
2015-Mar-18 10:33N 34°40' E 135°27'0 0.0
2015-Mar-18 09:33N 34°40' E 135°27'0 0.0
2015-Mar-18 08:33N 34°40' E 135°27'0 0.1
2015-Mar-18 07:33N 34°40' E 135°27'7 7.1
2015-Mar-18 06:33N 34°36' E 135°20'2 1.9
2015-Mar-18 05:33N 34°35' E 135°18'0 0.0
2015-Mar-18 04:33N 34°35' E 135°18'0 0.0
2015-Mar-18 03:33N 34°35' E 135°18'0 0.0
2015-Mar-18 02:33N 34°35' E 135°18'0 0.0
2015-Mar-18 01:33N 34°35' E 135°18'0 0.0
2015-Mar-18 00:33N 34°35' E 135°18'0 0.0
2015-Mar-17 23:33N 34°35' E 135°18'0 0.0
2015-Mar-17 22:33N 34°35' E 135°18'0 0.0
2015-Mar-17 21:33N 34°35' E 135°18'0 0.0
2015-Mar-17 20:33N 34°35' E 135°18'0 0.1
2015-Mar-17 19:33N 34°35' E 135°18'0 0.0
2015-Mar-17 18:33N 34°35' E 135°18'0 0.1
2015-Mar-17 17:33N 34°35' E 135°18'0 0.0
2015-Mar-17 16:34N 34°35' E 135°18'0 0.0
2015-Mar-17 15:33N 34°35' E 135°18'0 0.0
2015-Mar-17 14:33N 34°35' E 135°18'0 0.0
2015-Mar-17 13:33N 34°35' E 135°18'0 0.0
2015-Mar-17 12:33N 34°35' E 135°18'0 0.0
2015-Mar-17 11:33N 34°35' E 135°18'0 0.0
2015-Mar-17 10:33N 34°35' E 135°18'0 0.1
2015-Mar-17 09:33N 34°35' E 135°18'0 0.0
2015-Mar-17 08:33N 34°35' E 135°18'0 0.0
2015-Mar-17 07:33N 34°35' E 135°18'0 0.0
2015-Mar-17 06:33N 34°35' E 135°18'0 0.0
2015-Mar-17 05:33N 34°35' E 135°18'0 0.0
2015-Mar-17 04:33N 34°35' E 135°18'0 0.0
2015-Mar-17 03:33N 34°35' E 135°18'0 0.0
2015-Mar-17 02:33N 34°35' E 135°18'0 0.0
2015-Mar-17 01:33N 34°35' E 135°18'0 0.0
2015-Mar-17 00:33N 34°35' E 135°18'0 0.0
2015-Mar-16 23:33N 34°35' E 135°18'7 7.3
2015-Mar-16 22:33N 34°29' E 135°12'1312.6
2015-Mar-16 21:31N 34°20' E 135°01'8 8.1
2015-Mar-16 20:34N 34°14' E 135°08'0 0.2
2015-Mar-16 19:34N 34°14' E 135°08'0 0.0
2015-Mar-16 18:34N 34°14' E 135°08'0 0.0
2015-Mar-16 17:33N 34°14' E 135°08'0 0.0
2015-Mar-16 16:33N 34°14' E 135°08'0 0.0
2015-Mar-16 15:34N 34°14' E 135°08'0 0.0
2015-Mar-16 14:34N 34°14' E 135°08'0 0.0
2015-Mar-16 13:33N 34°14' E 135°08'0 0.0
2015-Mar-16 12:34N 34°14' E 135°08'0 0.0
2015-Mar-16 11:33N 34°14' E 135°08'0 0.0
2015-Mar-16 10:34N 34°14' E 135°08'2 2.5
2015-Mar-16 09:34N 34°15' E 135°05'7 6.6
2015-Mar-16 08:33N 34°08' E 135°07'2 0.2
2015-Mar-15 23:11N 34°07' E 135°08'1 1.5
2015-Mar-15 22:24N 34°08' E 135°07'0 0.0
2015-Mar-15 21:30N 34°08' E 135°07'0 0.0
2015-Mar-15 20:33N 34°08' E 135°07'0 0.0
2015-Mar-15 19:27N 34°08' E 135°07'0 0.0
2015-Mar-15 18:33N 34°08' E 135°07'1 1.0
2015-Mar-15 17:33N 34°09' E 135°06'6 5.6
2015-Mar-15 16:33N 34°14' E 135°08'0 0.0
2015-Mar-15 15:31N 34°14' E 135°08'0 0.0
2015-Mar-15 14:31N 34°14' E 135°08'0 0.0
2015-Mar-15 13:28N 34°14' E 135°08'0 0.0
2015-Mar-15 12:28N 34°14' E 135°08'0 0.0
2015-Mar-15 11:31N 34°14' E 135°08'0 0.0
2015-Mar-15 10:31N 34°14' E 135°08'0 0.0
2015-Mar-15 09:31N 34°14' E 135°08'0 0.0
2015-Mar-15 08:31N 34°14' E 135°08'0 0.0
2015-Mar-15 07:31N 34°14' E 135°08'0 0.0
2015-Mar-15 06:31N 34°14' E 135°08'0 0.0
2015-Mar-15 05:31N 34°14' E 135°08'0 0.0
2015-Mar-15 04:31N 34°14' E 135°08'0 0.1
2015-Mar-15 03:33N 34°14' E 135°08'7 7.2
2015-Mar-15 02:33N 34°16' E 134°59'1212.2
2015-Mar-15 01:32N 34°28' E 135°02'9 9.1
2015-Mar-15 00:31N 34°36' E 134°57'1512.8
2015-Mar-14 23:22N 34°41' E 134°40'8 0.7
2015-Mar-14 12:09N 34°39' E 134°49'812.6
2015-Mar-14 11:32N 34°38' E 134°59'9 9.4
2015-Mar-14 10:33N 34°29' E 135°04'1313.2
2015-Mar-14 09:32N 34°17' E 134°59'1313.1
2015-Mar-14 08:33N 34°04' E 134°59'23710.3
2015-Mar-13 09:33N 35°04' E 139°38'1010.2
2015-Mar-13 08:33N 35°12' E 139°46'1110.7
2015-Mar-13 07:33N 35°22' E 139°42'7 7.1
2015-Mar-13 06:33N 35°29' E 139°40'0 0.0
2015-Mar-13 05:32N 35°29' E 139°40'0 0.0
2015-Mar-13 04:32N 35°29' E 139°40'0 0.0
2015-Mar-13 03:32N 35°29' E 139°40'0 0.0
2015-Mar-13 02:32N 35°29' E 139°40'1 0.9
2015-Mar-13 01:33N 35°28' E 139°40'5 5.4
2015-Mar-13 00:33N 35°24' E 139°44'0 0.0
2015-Mar-12 23:33N 35°24' E 139°44'0 0.0
2015-Mar-12 22:33N 35°24' E 139°44'0 0.0
2015-Mar-12 21:33N 35°24' E 139°44'0 0.1
2015-Mar-12 20:34N 35°24' E 139°44'5 5.2
2015-Mar-12 19:33N 35°19' E 139°44'1211.6
2015-Mar-12 18:34N 35°07' E 139°46'1211.5
2015-Mar-12 17:30N 34°55' E 139°45'  

Dump ship's entire track history